createdAt,value
2023-03-30T00:01:15.204Z,4.76
2023-03-30T00:06:21.845Z,4.80
2023-03-30T00:11:23.515Z,4.84
2023-03-30T00:16:23.901Z,4.87
2023-03-30T00:21:23.928Z,4.89
2023-03-30T00:26:23.847Z,4.89
2023-03-30T00:31:22.873Z,4.90
2023-03-30T00:36:22.748Z,4.91
2023-03-30T00:41:22.226Z,4.92
2023-03-30T00:46:23.040Z,4.94
2023-03-30T00:51:23.529Z,4.96
2023-03-30T00:56:28.617Z,4.99
2023-03-30T01:01:29.260Z,5.01
2023-03-30T01:06:32.057Z,5.03
2023-03-30T01:11:31.812Z,5.04
2023-03-30T01:16:41.502Z,5.05
2023-03-30T01:22:14.969Z,5.05
2023-03-30T01:27:46.437Z,5.06
2023-03-30T01:39:35.561Z,5.06
2023-03-30T01:44:51.904Z,5.05
2023-03-30T01:50:03.062Z,5.05
2023-03-30T01:55:11.908Z,5.05
2023-03-30T02:00:17.982Z,5.05
2023-03-30T02:05:21.181Z,5.04
2023-03-30T02:10:25.801Z,5.03
2023-03-30T02:15:30.596Z,5.04
2023-03-30T02:20:31.057Z,5.01
2023-03-30T02:25:31.418Z,4.99
2023-03-30T02:30:40.605Z,4.97
2023-03-30T02:36:00.138Z,4.94
2023-03-30T02:41:13.039Z,4.92
2023-03-30T02:46:31.509Z,4.91
2023-03-30T02:51:44.833Z,4.92
2023-03-30T02:56:58.423Z,4.92
2023-03-30T03:02:05.705Z,4.91
2023-03-30T03:07:05.426Z,4.90
2023-03-30T03:12:04.835Z,4.90
2023-03-30T03:17:09.657Z,4.90
2023-03-30T03:22:17.608Z,4.90
2023-03-30T03:27:17.066Z,4.89
2023-03-30T03:32:37.268Z,4.88
2023-03-30T03:37:37.341Z,4.87
2023-03-30T03:42:37.958Z,4.87
2023-03-30T03:47:45.446Z,4.86
2023-03-30T03:52:44.944Z,4.85
2023-03-30T03:57:45.550Z,4.84
2023-03-30T04:02:45.258Z,4.83
2023-03-30T04:07:46.535Z,4.82
2023-03-30T04:12:49.023Z,4.81
2023-03-30T04:18:16.159Z,4.81
2023-03-30T04:23:26.176Z,4.80
2023-03-30T04:28:47.224Z,4.81
2023-03-30T04:34:02.923Z,4.81
2023-03-30T04:39:06.728Z,4.82
2023-03-30T04:44:29.655Z,4.85
2023-03-30T04:49:49.271Z,4.88
2023-03-30T04:55:08.995Z,4.95
2023-03-30T05:00:29.256Z,5.03
2023-03-30T05:05:47.302Z,5.11
2023-03-30T05:11:23.194Z,5.21
2023-03-30T05:16:33.983Z,5.30
2023-03-30T05:21:52.318Z,5.39
2023-03-30T05:27:11.609Z,5.50
2023-03-30T05:32:32.174Z,5.58
2023-03-30T05:37:57.235Z,5.67
2023-03-30T05:43:15.669Z,5.75
2023-03-30T05:48:33.461Z,5.83
2023-03-30T05:53:39.056Z,5.92
2023-03-30T05:58:57.012Z,6.03
2023-03-30T06:04:16.631Z,6.17
2023-03-30T06:09:19.146Z,6.30
2023-03-30T06:14:18.320Z,6.42
2023-03-30T06:19:29.614Z,6.55
2023-03-30T06:24:29.368Z,6.66
2023-03-30T06:29:31.632Z,6.76
2023-03-30T06:34:31.642Z,6.86
2023-03-30T06:39:31.544Z,7.00
2023-03-30T06:44:31.140Z,7.20
2023-03-30T06:49:33.819Z,7.39
2023-03-30T06:54:45.241Z,7.60
2023-03-30T06:59:44.719Z,7.72
2023-03-30T07:04:53.123Z,7.80
2023-03-30T07:10:15.000Z,7.85
2023-03-30T07:15:18.387Z,7.97
2023-03-30T07:20:21.001Z,8.16
2023-03-30T07:25:38.170Z,8.28
2023-03-30T07:30:45.378Z,8.29
2023-03-30T07:35:50.173Z,8.27
2023-03-30T07:40:53.409Z,8.28
2023-03-30T07:45:54.051Z,8.34
2023-03-30T07:51:14.385Z,8.40
2023-03-30T07:56:23.755Z,8.46
2023-03-30T08:01:25.743Z,8.44
2023-03-30T08:06:27.260Z,8.41
2023-03-30T08:11:28.859Z,8.46
2023-03-30T08:16:29.713Z,8.57
2023-03-30T08:21:29.581Z,8.74
2023-03-30T08:26:30.945Z,8.86
2023-03-30T08:31:32.968Z,9.01
2023-03-30T08:36:32.373Z,9.13
2023-03-30T08:42:10.035Z,9.26
2023-03-30T08:47:16.335Z,9.38
2023-03-30T08:52:24.749Z,9.53
2023-03-30T08:57:39.934Z,9.62
2023-03-30T09:02:47.279Z,9.64
2023-03-30T09:07:59.131Z,9.67
2023-03-30T09:13:02.179Z,9.72
2023-03-30T09:18:11.406Z,9.76
2023-03-30T09:23:16.614Z,9.75
2023-03-30T09:28:25.070Z,9.75
2023-03-30T09:33:43.422Z,9.79
2023-03-30T09:38:43.650Z,9.84
2023-03-30T09:43:47.781Z,9.89
2023-03-30T09:48:49.297Z,9.95
2023-03-30T09:53:52.338Z,10.01
2023-03-30T09:58:51.850Z,10.12
2023-03-30T10:04:12.875Z,10.22
2023-03-30T10:09:16.777Z,10.36
2023-03-30T10:14:36.378Z,10.63
2023-03-30T10:19:47.783Z,10.99
2023-03-30T10:24:57.477Z,11.29
2023-03-30T10:29:57.022Z,11.67
2023-03-30T10:35:04.750Z,12.07
2023-03-30T10:40:12.742Z,12.56
2023-03-30T10:45:24.209Z,13.09
2023-03-30T10:50:36.735Z,13.58
2023-03-30T10:55:44.468Z,14.06
2023-03-30T11:01:00.915Z,14.42
2023-03-30T11:06:11.279Z,14.66
2023-03-30T11:11:17.477Z,14.90
2023-03-30T11:16:23.027Z,15.24
2023-03-30T11:21:30.445Z,15.55
2023-03-30T11:26:39.284Z,15.60
2023-03-30T11:32:00.687Z,15.65
2023-03-30T11:37:14.736Z,15.82
2023-03-30T11:42:23.442Z,16.06
2023-03-30T11:47:53.421Z,16.44
2023-03-30T11:53:13.084Z,16.80
2023-03-30T11:58:28.463Z,16.93
2023-03-30T12:03:44.006Z,17.08
2023-03-30T12:09:02.884Z,17.48
2023-03-30T12:14:04.012Z,17.54
2023-03-30T12:19:18.590Z,17.40
2023-03-30T12:24:24.896Z,17.59
2023-03-30T12:34:30.747Z,18.42
2023-03-30T12:39:37.757Z,18.69
2023-03-30T12:44:49.657Z,19.03
2023-03-30T12:50:13.563Z,19.33
2023-03-30T12:55:42.130Z,19.26
2023-03-30T13:00:58.073Z,18.74
2023-03-30T13:05:59.629Z,18.09
2023-03-30T13:11:16.958Z,17.58
2023-03-30T13:16:16.465Z,16.97
2023-03-30T13:21:29.203Z,16.43
2023-03-30T13:26:43.929Z,16.00
2023-03-30T13:32:21.656Z,15.62
2023-03-30T13:37:29.377Z,15.25
2023-03-30T13:42:51.228Z,14.95
2023-03-30T13:48:07.012Z,14.71
2023-03-30T13:53:12.463Z,14.51
2023-03-30T13:58:20.311Z,14.43
2023-03-30T14:03:49.275Z,14.39
2023-03-30T14:08:52.579Z,14.41
2023-03-30T14:13:54.261Z,14.54
2023-03-30T14:19:06.370Z,14.72
2023-03-30T14:24:11.398Z,14.88
2023-03-30T14:29:30.280Z,15.02
2023-03-30T14:34:34.513Z,15.17
2023-03-30T14:39:40.391Z,15.29
2023-03-30T14:44:44.034Z,15.31
2023-03-30T14:49:47.616Z,15.18
2023-03-30T14:55:05.164Z,14.95
2023-03-30T15:00:20.819Z,14.61
2023-03-30T15:05:24.550Z,14.29
2023-03-30T15:10:33.483Z,14.04
2023-03-30T15:15:35.450Z,13.81
2023-03-30T15:20:36.110Z,13.61
2023-03-30T15:25:38.596Z,13.43
2023-03-30T15:30:44.152Z,13.21
2023-03-30T15:35:46.263Z,13.00
2023-03-30T15:40:47.543Z,12.83
2023-03-30T15:45:52.772Z,12.64
2023-03-30T15:51:03.861Z,12.48
2023-03-30T15:56:04.785Z,12.36
2023-03-30T16:01:08.022Z,12.30
2023-03-30T16:06:15.092Z,12.27
2023-03-30T16:11:17.230Z,12.22
2023-03-30T16:16:18.684Z,12.16
2023-03-30T16:21:18.974Z,12.13
2023-03-30T16:26:18.461Z,12.08
2023-03-30T16:31:23.432Z,12.04
2023-03-30T16:36:25.797Z,12.02
2023-03-30T16:41:26.770Z,11.98
2023-03-30T16:46:26.553Z,11.95
2023-03-30T16:51:27.156Z,11.91
2023-03-30T16:56:26.846Z,11.86
2023-03-30T17:01:27.132Z,11.81
2023-03-30T17:06:27.619Z,11.76
2023-03-30T17:11:28.076Z,11.68
2023-03-30T17:16:29.421Z,11.61
2023-03-30T17:21:29.462Z,11.52
2023-03-30T17:26:29.163Z,11.43
2023-03-30T17:31:27.800Z,11.35
2023-03-30T17:36:30.030Z,11.27
2023-03-30T17:41:29.343Z,11.17
2023-03-30T17:46:29.304Z,11.08
2023-03-30T17:51:27.936Z,11.02
2023-03-30T17:56:50.216Z,10.98
2023-03-30T18:01:50.540Z,10.95
2023-03-30T18:06:55.595Z,10.94
2023-03-30T18:12:01.421Z,10.92
2023-03-30T18:17:07.889Z,10.92
2023-03-30T18:22:11.244Z,10.93
2023-03-30T18:27:17.235Z,10.93
2023-03-30T18:32:20.972Z,10.94
2023-03-30T18:37:22.645Z,10.93
2023-03-30T18:42:24.769Z,10.90
2023-03-30T18:47:26.664Z,10.87
2023-03-30T18:52:28.030Z,10.84
2023-03-30T18:57:28.865Z,10.82
2023-03-30T19:02:31.880Z,10.79
2023-03-30T19:07:33.871Z,10.74
2023-03-30T19:12:34.286Z,10.68
2023-03-30T19:17:35.247Z,10.61
2023-03-30T19:22:46.045Z,10.56
2023-03-30T19:27:59.521Z,10.48
2023-03-30T19:33:05.974Z,10.42
2023-03-30T19:38:11.963Z,10.35
2023-03-30T19:43:12.994Z,10.29
2023-03-30T19:53:29.570Z,10.18
2023-03-30T19:58:34.563Z,10.14
2023-03-30T20:03:36.314Z,10.11
2023-03-30T20:08:38.432Z,10.07
2023-03-30T20:13:45.594Z,10.01
2023-03-30T20:18:54.912Z,9.95
2023-03-30T20:23:56.134Z,9.91
2023-03-30T20:28:55.294Z,9.88
2023-03-30T20:33:55.255Z,9.85
2023-03-30T20:38:59.499Z,9.83
2023-03-30T20:43:58.166Z,9.81
2023-03-30T20:49:02.089Z,9.77
2023-03-30T20:54:02.073Z,9.75
2023-03-30T20:59:02.632Z,9.72
2023-03-30T21:04:04.290Z,9.68
2023-03-30T21:09:07.248Z,9.65
2023-03-30T21:14:07.704Z,9.64
2023-03-30T21:19:07.286Z,9.64
2023-03-30T21:24:08.940Z,9.64
2023-03-30T21:29:13.345Z,9.65
2023-03-30T21:34:13.770Z,9.67
2023-03-30T21:39:13.090Z,9.68
2023-03-30T21:44:12.054Z,9.70
2023-03-30T21:49:12.813Z,9.71
2023-03-30T21:54:12.509Z,9.73
2023-03-30T21:59:11.919Z,9.74
2023-03-30T22:04:11.119Z,9.76
2023-03-30T22:09:10.629Z,9.78
2023-03-30T22:14:10.866Z,9.79
2023-03-30T22:19:09.677Z,9.80
2023-03-30T22:24:12.586Z,9.81
2023-03-30T22:29:11.618Z,9.82
2023-03-30T22:34:10.928Z,9.82
2023-03-30T22:39:11.348Z,9.81
2023-03-30T22:44:11.402Z,9.80
2023-03-30T22:49:11.351Z,9.78
2023-03-30T22:54:11.292Z,9.78
2023-03-30T22:59:10.306Z,9.78
2023-03-30T23:04:12.863Z,9.81
2023-03-30T23:09:13.713Z,9.90
2023-03-30T23:14:13.616Z,10.07
2023-03-30T23:19:13.107Z,10.21
2023-03-30T23:24:14.951Z,10.33
2023-03-30T23:29:14.287Z,10.42
2023-03-30T23:34:17.016Z,10.50
2023-03-30T23:39:16.563Z,10.57
2023-03-30T23:44:16.561Z,10.64
2023-03-30T23:49:17.801Z,10.67
2023-03-30T23:54:18.452Z,10.69
2023-03-30T23:59:19.120Z,10.70
